createdAt,value
2023-01-10T00:01:52.365Z,101249.28
2023-01-10T00:04:19.091Z,101245.78
2023-01-10T00:06:45.697Z,101249.44
2023-01-10T00:09:12.327Z,101244.94
2023-01-10T00:11:57.538Z,101252.13
2023-01-10T00:14:24.071Z,101252.97
2023-01-10T00:16:50.617Z,101256.47
2023-01-10T00:19:17.263Z,101261.94
2023-01-10T00:21:43.837Z,101262.81
2023-01-10T00:24:18.859Z,101274.34
2023-01-10T00:26:50.934Z,101274.34
2023-01-10T00:29:24.048Z,101277.88
2023-01-10T00:31:50.567Z,101276.19
2023-01-10T00:34:17.451Z,101289.56
2023-01-10T00:36:45.649Z,101294.91
2023-01-10T00:39:12.289Z,101292.25
2023-01-10T00:41:57.951Z,101290.50
2023-01-10T00:44:24.467Z,101300.25
2023-01-10T00:46:50.931Z,101305.59
2023-01-10T00:49:17.550Z,101322.50
2023-01-10T00:51:45.049Z,101326.88
2023-01-10T00:54:12.814Z,101331.38
2023-01-10T00:56:39.430Z,101324.19
2023-01-10T00:59:06.664Z,101329.53
2023-01-10T01:01:33.555Z,101324.06
2023-01-10T01:04:00.296Z,101329.41
2023-01-10T01:06:26.950Z,101327.59
2023-01-10T01:08:53.500Z,101330.28
2023-01-10T01:11:20.075Z,101326.72
2023-01-10T01:13:46.549Z,101334.75
2023-01-10T01:16:13.573Z,101337.44
2023-01-10T01:18:40.144Z,101341.94
2023-01-10T01:21:06.775Z,101343.75
2023-01-10T01:23:34.833Z,101338.41
2023-01-10T01:26:01.637Z,101346.44
2023-01-10T01:28:28.458Z,101343.75
2023-01-10T01:30:55.009Z,101345.59
2023-01-10T01:33:21.617Z,101353.63
2023-01-10T01:35:49.742Z,101354.59
2023-01-10T01:38:17.462Z,101356.44
2023-01-10T01:40:44.965Z,101363.47
2023-01-10T01:43:29.167Z,101365.41
2023-01-10T01:46:00.408Z,101370.66
2023-01-10T01:48:36.698Z,101367.25
2023-01-10T01:51:21.090Z,101371.91
2023-01-10T01:53:50.984Z,101381.47
2023-01-10T01:56:24.456Z,101385.13
2023-01-10T01:59:05.666Z,101394.13
2023-01-10T02:01:34.047Z,101391.31
2023-01-10T02:04:12.224Z,101389.78
2023-01-10T02:06:39.157Z,101394.00
2023-01-10T02:09:14.530Z,101399.34
2023-01-10T02:11:41.170Z,101391.47
2023-01-10T02:14:10.331Z,101392.16
2023-01-10T02:16:36.873Z,101388.53
2023-01-10T02:19:08.060Z,101391.22
2023-01-10T02:21:58.883Z,101394.84
2023-01-10T02:24:40.618Z,101386.56
2023-01-10T02:27:33.082Z,101391.06
2023-01-10T02:30:13.951Z,101384.72
2023-01-10T02:33:05.845Z,101386.56
2023-01-10T02:36:09.361Z,101376.84
2023-01-10T02:38:40.995Z,101381.22
2023-01-10T02:41:22.394Z,101392.06
2023-01-10T02:43:54.451Z,101390.09
2023-01-10T02:46:27.429Z,101392.75
2023-01-10T02:48:55.248Z,101398.97
2023-01-10T02:51:21.746Z,101391.06
2023-01-10T02:53:57.733Z,101401.91
2023-01-10T02:56:27.125Z,101402.75
2023-01-10T02:59:11.947Z,101410.88
2023-01-10T03:01:38.532Z,101408.09
2023-01-10T03:04:41.691Z,101415.28
2023-01-10T03:07:25.238Z,101425.13
2023-01-10T03:09:58.442Z,101423.31
2023-01-10T03:12:45.416Z,101422.44
2023-01-10T03:15:15.535Z,101428.66
2023-01-10T03:17:44.839Z,101428.66
2023-01-10T03:20:11.987Z,101425.13
2023-01-10T03:22:40.009Z,101432.28
2023-01-10T03:25:10.493Z,101445.66
2023-01-10T03:28:04.613Z,101450.41
2023-01-10T03:30:44.535Z,101450.31
2023-01-10T03:33:12.899Z,101459.03
2023-01-10T03:36:08.841Z,101451.28
2023-01-10T03:39:05.397Z,101468.19
2023-01-10T03:41:49.474Z,101473.66
2023-01-10T03:44:44.987Z,101473.66
2023-01-10T03:47:41.273Z,101477.91
2023-01-10T03:50:20.063Z,101484.94
2023-01-10T03:52:46.900Z,101496.50
2023-01-10T03:55:19.304Z,101503.66
2023-01-10T03:57:45.934Z,101498.31
2023-01-10T04:00:14.067Z,101506.25
2023-01-10T04:02:40.586Z,101500.88
2023-01-10T04:05:07.443Z,101504.41
2023-01-10T04:07:34.447Z,101514.25
2023-01-10T04:10:01.025Z,101520.47
2023-01-10T04:12:27.636Z,101516.94
2023-01-10T04:14:54.126Z,101516.06
2023-01-10T04:17:20.696Z,101517.78
2023-01-10T04:19:47.234Z,101515.13
2023-01-10T04:22:14.148Z,101514.25
2023-01-10T04:24:41.165Z,101512.53
2023-01-10T04:27:07.708Z,101524.09
2023-01-10T04:29:34.251Z,101526.06
2023-01-10T04:32:01.108Z,101522.53
2023-01-10T04:34:27.876Z,101524.38
2023-01-10T04:36:54.444Z,101524.47
2023-01-10T04:39:20.942Z,101523.53
2023-01-10T04:41:47.420Z,101530.81
2023-01-10T04:44:13.977Z,101533.47
2023-01-10T04:46:40.483Z,101540.66
2023-01-10T04:49:07.367Z,101540.78
2023-01-10T04:51:33.925Z,101542.59
2023-01-10T04:54:00.483Z,101539.91
2023-01-10T04:56:27.025Z,101538.22
2023-01-10T04:58:54.162Z,101545.53
2023-01-10T05:01:23.955Z,101535.78
2023-01-10T05:03:51.908Z,101534.00
2023-01-10T05:06:19.656Z,101548.31
2023-01-10T05:08:46.370Z,101555.50
2023-01-10T05:11:13.373Z,101568.88
2023-01-10T05:13:41.409Z,101573.50
2023-01-10T05:16:08.422Z,101586.88
2023-01-10T05:18:35.065Z,101581.53
2023-01-10T05:21:11.061Z,101582.47
2023-01-10T05:23:38.648Z,101586.88
2023-01-10T05:26:19.271Z,101597.69
2023-01-10T05:28:46.054Z,101592.34
2023-01-10T05:31:15.228Z,101592.34
2023-01-10T05:33:51.408Z,101587.81
2023-01-10T05:36:18.988Z,101600.25
2023-01-10T05:38:45.957Z,101599.41
2023-01-10T05:41:12.487Z,101606.44
2023-01-10T05:43:39.000Z,101603.03
2023-01-10T05:46:05.931Z,101614.56
2023-01-10T05:48:32.594Z,101629.78
2023-01-10T05:50:59.114Z,101630.63
2023-01-10T05:53:25.922Z,101622.59
2023-01-10T05:56:00.574Z,101616.53
2023-01-10T05:58:28.841Z,101617.38
2023-01-10T06:00:56.658Z,101630.75
2023-01-10T06:03:23.490Z,101631.72
2023-01-10T06:05:50.059Z,101635.38
2023-01-10T06:08:17.343Z,101648.75
2023-01-10T06:10:44.365Z,101642.53
2023-01-10T06:13:12.196Z,101648.88
2023-01-10T06:15:39.290Z,101646.31
2023-01-10T06:18:06.211Z,101649.97
2023-01-10T06:20:32.706Z,101655.31
2023-01-10T06:23:02.225Z,101654.59
2023-01-10T06:25:29.386Z,101651.06
2023-01-10T06:27:56.512Z,101655.56
2023-01-10T06:30:23.251Z,101650.22
2023-01-10T06:32:49.775Z,101652.97
2023-01-10T06:35:18.009Z,101663.69
2023-01-10T06:37:44.781Z,101654.81
2023-01-10T06:40:11.813Z,101659.22
2023-01-10T06:42:39.811Z,101666.50
2023-01-10T06:45:06.666Z,101665.66
2023-01-10T06:47:33.188Z,101679.13
2023-01-10T06:49:59.708Z,101687.03
2023-01-10T06:52:26.231Z,101687.88
2023-01-10T06:54:53.177Z,101683.50
2023-01-10T06:57:19.797Z,101688.72
2023-01-10T06:59:46.321Z,101689.72
2023-01-10T07:02:13.279Z,101690.56
2023-01-10T07:04:39.814Z,101690.69
2023-01-10T07:07:06.300Z,101696.88
2023-01-10T07:09:32.842Z,101696.75
2023-01-10T07:11:59.357Z,101704.78
2023-01-10T07:14:25.900Z,101715.47
2023-01-10T07:16:52.413Z,101728.00
2023-01-10T07:19:19.975Z,101725.31
2023-01-10T07:21:46.964Z,101734.31
2023-01-10T07:24:13.786Z,101729.81
2023-01-10T07:26:40.605Z,101727.38
2023-01-10T07:29:07.454Z,101745.97
2023-01-10T07:31:34.090Z,101743.53
2023-01-10T07:34:00.835Z,101745.25
2023-01-10T07:36:27.439Z,101745.25
2023-01-10T07:38:54.045Z,101742.56
2023-01-10T07:41:20.608Z,101752.28
2023-01-10T07:43:48.800Z,101751.44
2023-01-10T07:46:15.618Z,101754.13
2023-01-10T07:48:42.546Z,101755.94
2023-01-10T07:51:09.671Z,101749.75
2023-01-10T07:53:36.338Z,101748.91
2023-01-10T07:56:03.878Z,101751.56
2023-01-10T07:58:30.671Z,101755.19
2023-01-10T08:01:02.414Z,101749.00
2023-01-10T08:03:33.363Z,101752.50
2023-01-10T08:06:05.898Z,101764.31
2023-01-10T08:08:33.531Z,101761.66
2023-01-10T08:11:02.793Z,101771.50
2023-01-10T08:13:30.320Z,101783.03
2023-01-10T08:15:57.237Z,101778.75
2023-01-10T08:18:24.823Z,101785.81
2023-01-10T08:20:53.109Z,101777.06
2023-01-10T08:23:20.775Z,101783.25
2023-01-10T08:25:47.475Z,101785.09
2023-01-10T08:28:15.002Z,101770.00
2023-01-10T08:30:41.603Z,101771.84
2023-01-10T08:33:09.031Z,101773.75
2023-01-10T08:35:40.172Z,101771.22
2023-01-10T08:38:06.948Z,101773.91
2023-01-10T08:40:33.513Z,101766.94
2023-01-10T08:43:02.039Z,101766.94
2023-01-10T08:45:29.261Z,101769.75
2023-01-10T08:47:56.143Z,101754.56
2023-01-10T08:50:24.080Z,101757.31
2023-01-10T08:52:51.333Z,101757.31
2023-01-10T08:55:18.923Z,101759.16
2023-01-10T08:57:45.604Z,101765.34
2023-01-10T09:00:13.109Z,101773.38
2023-01-10T09:02:40.590Z,101763.56
2023-01-10T09:05:12.286Z,101757.22
2023-01-10T09:07:48.790Z,101761.59
2023-01-10T09:10:15.444Z,101769.50
2023-01-10T09:12:57.045Z,101759.69
2023-01-10T09:15:25.975Z,101765.03
2023-01-10T09:17:56.960Z,101761.38
2023-01-10T09:20:25.830Z,101751.66
2023-01-10T09:22:53.097Z,101759.69
2023-01-10T09:25:19.924Z,101748.00
2023-01-10T09:27:46.657Z,101749.84
2023-01-10T09:30:14.079Z,101743.63
2023-01-10T09:32:40.742Z,101744.50
2023-01-10T09:35:07.538Z,101749.84
2023-01-10T09:37:34.933Z,101746.31
2023-01-10T09:40:01.540Z,101757.94
2023-01-10T09:42:31.399Z,101750.91
2023-01-10T09:45:16.485Z,101749.94
2023-01-10T09:48:05.439Z,101747.38
2023-01-10T09:50:36.039Z,101750.91
2023-01-10T09:53:11.575Z,101754.56
2023-01-10T09:55:39.096Z,101770.47
2023-01-10T09:58:11.162Z,101764.41
2023-01-10T10:00:49.351Z,101756.47
2023-01-10T10:03:21.990Z,101747.50
2023-01-10T10:05:50.532Z,101739.59
2023-01-10T10:08:20.011Z,101744.09
2023-01-10T10:11:17.277Z,101742.41
2023-01-10T10:13:58.829Z,101745.16
2023-01-10T10:16:48.794Z,101745.16
2023-01-10T10:19:40.376Z,101743.47
2023-01-10T10:22:20.611Z,101748.09
2023-01-10T10:25:11.860Z,101735.59
2023-01-10T10:27:57.002Z,101737.50
2023-01-10T10:30:35.244Z,101730.34
2023-01-10T10:33:16.409Z,101728.53
2023-01-10T10:35:50.567Z,101729.38
2023-01-10T10:38:29.941Z,101732.91
2023-01-10T10:40:59.920Z,101723.91
2023-01-10T10:43:37.464Z,101718.56
2023-01-10T10:46:09.234Z,101706.91
2023-01-10T10:48:58.036Z,101710.41
2023-01-10T10:51:48.058Z,101715.75
2023-01-10T10:54:15.104Z,101707.53
2023-01-10T10:56:43.105Z,101687.13
2023-01-10T10:59:11.960Z,101686.25
2023-01-10T11:01:38.802Z,101678.25
2023-01-10T11:04:10.324Z,101677.50
2023-01-10T11:06:38.654Z,101676.41
2023-01-10T11:09:06.826Z,101672.06
2023-01-10T11:11:40.940Z,101675.69
2023-01-10T11:14:08.770Z,101672.16
2023-01-10T11:16:39.928Z,101668.63
2023-01-10T11:19:26.785Z,101666.81
2023-01-10T11:21:59.808Z,101656.97
2023-01-10T11:24:40.806Z,101650.91
2023-01-10T11:27:18.120Z,101642.88
2023-01-10T11:29:56.248Z,101639.22
2023-01-10T11:32:30.637Z,101645.44
2023-01-10T11:35:01.501Z,101648.09
2023-01-10T11:37:32.849Z,101636.56
2023-01-10T11:40:08.170Z,101634.88
2023-01-10T11:42:34.751Z,101637.41
2023-01-10T11:45:13.521Z,101628.53
2023-01-10T11:47:45.682Z,101633.78
2023-01-10T11:50:19.277Z,101624.03
2023-01-10T11:52:46.413Z,101617.84
2023-01-10T11:55:20.031Z,101609.97
2023-01-10T11:57:54.744Z,101607.16
2023-01-10T12:00:21.916Z,101605.34
2023-01-10T12:02:50.188Z,101604.50
2023-01-10T12:05:22.269Z,101602.78
2023-01-10T12:07:59.447Z,101593.09
2023-01-10T12:10:28.753Z,101591.13
2023-01-10T12:12:58.137Z,101578.75
2023-01-10T12:15:28.194Z,101579.47
2023-01-10T12:18:00.221Z,101561.72
2023-01-10T12:20:29.926Z,101568.66
2023-01-10T12:23:00.912Z,101569.50
2023-01-10T12:25:34.141Z,101565.16
2023-01-10T12:28:01.632Z,101551.66
2023-01-10T12:30:43.626Z,101554.44
2023-01-10T12:33:27.433Z,101547.28
2023-01-10T12:36:13.374Z,101550.81
2023-01-10T12:39:10.597Z,101546.31
2023-01-10T12:42:13.313Z,101546.44
2023-01-10T12:44:43.026Z,101536.59
2023-01-10T12:47:13.668Z,101534.75
2023-01-10T12:50:03.940Z,101533.16
2023-01-10T12:52:52.644Z,101524.31
2023-01-10T12:55:21.692Z,101514.38
2023-01-10T12:57:52.237Z,101507.28
2023-01-10T13:00:40.336Z,101503.91
2023-01-10T13:03:19.320Z,101501.94
2023-01-10T13:05:49.513Z,101495.66
2023-01-10T13:08:19.574Z,101482.53
2023-01-10T13:10:49.765Z,101486.03
2023-01-10T13:13:37.066Z,101479.00
2023-01-10T13:16:28.329Z,101478.16
2023-01-10T13:19:10.027Z,101463.22
2023-01-10T13:21:38.590Z,101465.88
2023-01-10T13:24:19.776Z,101461.53
2023-01-10T13:27:02.224Z,101458.94
2023-01-10T13:29:40.684Z,101453.50
2023-01-10T13:32:31.051Z,101458.00
2023-01-10T13:35:14.062Z,101448.25
2023-01-10T13:37:43.230Z,101454.34
2023-01-10T13:40:21.555Z,101445.59
2023-01-10T13:43:33.435Z,101443.06
2023-01-10T13:46:15.359Z,101434.06
2023-01-10T13:49:03.471Z,101427.75
2023-01-10T13:51:31.387Z,101433.94
2023-01-10T13:54:02.453Z,101426.03
2023-01-10T13:56:38.154Z,101419.00
2023-01-10T13:59:40.664Z,101403.94
2023-01-10T14:02:32.038Z,101397.72
2023-01-10T14:05:07.782Z,101393.34
2023-01-10T14:07:45.736Z,101388.13
2023-01-10T14:10:27.206Z,101384.63
2023-01-10T14:13:09.927Z,101379.38
2023-01-10T14:15:45.859Z,101369.66
2023-01-10T14:18:28.975Z,101359.13
2023-01-10T14:21:28.642Z,101353.03
2023-01-10T14:23:57.570Z,101345.88
2023-01-10T14:26:32.875Z,101346.00
2023-01-10T14:29:02.209Z,101332.63
2023-01-10T14:31:29.266Z,101334.59
2023-01-10T14:33:58.843Z,101322.34
2023-01-10T14:36:35.920Z,101313.59
2023-01-10T14:39:06.033Z,101300.22
2023-01-10T14:41:38.276Z,101287.84
2023-01-10T14:44:31.941Z,101266.63
2023-01-10T14:47:02.947Z,101263.94
2023-01-10T14:49:31.086Z,101257.75
2023-01-10T14:52:15.846Z,101260.69
2023-01-10T14:54:42.475Z,101264.94
2023-01-10T14:57:21.094Z,101252.81
2023-01-10T14:59:48.032Z,101256.31
2023-01-10T15:02:23.949Z,101247.47
2023-01-10T15:04:57.125Z,101239.56
2023-01-10T15:07:25.387Z,101241.25
2023-01-10T15:09:56.296Z,101226.19
2023-01-10T15:12:24.703Z,101213.69
2023-01-10T15:14:59.399Z,101206.66
2023-01-10T15:17:27.656Z,101212.75
2023-01-10T15:19:55.308Z,101205.69
2023-01-10T15:22:33.694Z,101206.81
2023-01-10T15:25:08.133Z,101177.41
2023-01-10T15:27:37.015Z,101178.28
2023-01-10T15:30:09.030Z,101164.06
2023-01-10T15:32:39.377Z,101146.47
2023-01-10T15:35:08.885Z,101169.66
2023-01-10T15:37:40.792Z,101159.97
2023-01-10T15:40:21.761Z,101162.75
2023-01-10T15:42:48.407Z,101167.09
2023-01-10T15:45:38.969Z,101149.63
2023-01-10T15:48:24.510Z,101161.06
2023-01-10T15:51:20.517Z,101164.09
2023-01-10T15:53:55.714Z,101155.13
2023-01-10T15:56:37.792Z,101140.91
2023-01-10T15:59:06.430Z,101148.09
2023-01-10T16:01:34.168Z,101134.84
2023-01-10T16:04:04.408Z,101106.47
2023-01-10T16:06:36.518Z,101114.47
2023-01-10T16:09:08.802Z,101098.59
2023-01-10T16:11:57.463Z,101089.72
2023-01-10T16:14:24.310Z,101072.97
2023-01-10T16:16:51.614Z,101064.00
2023-01-10T16:19:18.159Z,101068.47
2023-01-10T16:21:49.745Z,101070.19
2023-01-10T16:24:20.062Z,101094.34
2023-01-10T16:26:48.040Z,101076.63
2023-01-10T16:29:14.710Z,101076.63
2023-01-10T16:31:41.884Z,101076.63
2023-01-10T16:34:09.171Z,101075.78
2023-01-10T16:36:35.945Z,101061.72
2023-01-10T16:39:15.490Z,101055.66
2023-01-10T16:42:02.797Z,101044.00
2023-01-10T16:44:30.664Z,101052.75
2023-01-10T16:46:57.348Z,101035.84
2023-01-10T16:49:24.718Z,101044.84
2023-01-10T16:51:52.232Z,101039.41
2023-01-10T16:54:21.497Z,101030.41
2023-01-10T16:56:49.035Z,101028.56
2023-01-10T16:59:18.115Z,101020.56
2023-01-10T17:01:49.414Z,101033.91
2023-01-10T17:04:21.642Z,101028.44
2023-01-10T17:06:48.234Z,101028.31
2023-01-10T17:09:23.983Z,101016.91
2023-01-10T17:11:57.535Z,101019.59
2023-01-10T17:14:24.156Z,101005.13
2023-01-10T17:16:50.760Z,101005.25
2023-01-10T17:19:17.350Z,101003.44
2023-01-10T17:21:43.869Z,101003.56
2023-01-10T17:24:12.102Z,101000.19
2023-01-10T17:26:38.679Z,100983.19
2023-01-10T17:29:05.296Z,100974.34
2023-01-10T17:31:31.864Z,100993.88
2023-01-10T17:33:58.414Z,100980.53
2023-01-10T17:36:29.677Z,100980.66
2023-01-10T17:38:57.066Z,100995.69
2023-01-10T17:41:23.563Z,100988.53
2023-01-10T17:43:50.141Z,100995.56
2023-01-10T17:46:17.899Z,100963.66
2023-01-10T17:48:45.076Z,100967.16
2023-01-10T17:51:13.208Z,100946.66
2023-01-10T17:53:40.803Z,100964.50
2023-01-10T17:56:08.034Z,100952.97
2023-01-10T17:58:35.768Z,100948.47
2023-01-10T18:01:02.508Z,100932.31
2023-01-10T18:03:29.099Z,100927.97
2023-01-10T18:05:57.547Z,100934.28
2023-01-10T18:08:25.376Z,100927.13
2023-01-10T18:10:58.204Z,100919.97
2023-01-10T18:13:25.029Z,100913.78
2023-01-10T18:15:52.474Z,100923.47
2023-01-10T18:18:21.230Z,100914.47
2023-01-10T18:20:47.710Z,100924.31
2023-01-10T18:23:22.299Z,100914.75
2023-01-10T18:26:00.237Z,100911.25
2023-01-10T18:28:40.043Z,100902.38
2023-01-10T18:31:11.804Z,100893.50
2023-01-10T18:33:38.469Z,100905.03
2023-01-10T18:36:06.500Z,100913.03
2023-01-10T18:38:34.794Z,100896.91
2023-01-10T18:41:01.529Z,100893.41
2023-01-10T18:43:29.786Z,100903.09
2023-01-10T18:46:05.854Z,100924.47
2023-01-10T18:48:32.495Z,100892.28
2023-01-10T18:51:00.671Z,100908.19
2023-01-10T18:53:27.233Z,100917.13
2023-01-10T18:55:58.435Z,100884.16
2023-01-10T18:58:31.209Z,100904.53
2023-01-10T19:00:58.084Z,100895.53
2023-01-10T19:03:24.737Z,100899.88
2023-01-10T19:05:51.277Z,100883.84
2023-01-10T19:08:17.903Z,100902.28
2023-01-10T19:11:11.357Z,100888.94
2023-01-10T19:13:32.173Z,100913.69
2023-01-10T19:16:29.295Z,100896.09
2023-01-10T19:18:58.440Z,100899.34
2023-01-10T19:21:27.089Z,100896.84
2023-01-10T19:23:57.932Z,100891.34
2023-01-10T19:26:24.897Z,100892.34
2023-01-10T19:28:52.193Z,100882.59
2023-01-10T19:31:21.012Z,100875.47
2023-01-10T19:33:48.242Z,100871.94
2023-01-10T19:36:15.926Z,100884.31
2023-01-10T19:38:42.646Z,100866.59
2023-01-10T19:41:09.331Z,100877.25
2023-01-10T19:43:35.868Z,100865.63
2023-01-10T19:46:10.091Z,100854.22
2023-01-10T19:48:38.214Z,100850.56
2023-01-10T19:51:13.026Z,100859.44
2023-01-10T19:53:42.264Z,100856.78
2023-01-10T19:56:10.124Z,100859.28
2023-01-10T19:58:38.151Z,100853.97
2023-01-10T20:01:16.810Z,100843.28
2023-01-10T20:03:46.551Z,100850.31
2023-01-10T20:06:16.991Z,100848.47
2023-01-10T20:08:47.594Z,100835.25
2023-01-10T20:11:15.625Z,100831.59
2023-01-10T20:13:48.203Z,100832.44
2023-01-10T20:16:20.553Z,100824.44
2023-01-10T20:18:48.444Z,100829.78
2023-01-10T20:21:17.113Z,100819.09
2023-01-10T20:23:44.874Z,100821.66
2023-01-10T20:26:27.753Z,100809.25
2023-01-10T20:28:56.063Z,100798.47
2023-01-10T20:31:24.158Z,100800.97
2023-01-10T20:33:51.036Z,100809.84
2023-01-10T20:36:19.974Z,100797.47
2023-01-10T20:38:47.057Z,100807.16
2023-01-10T20:41:16.295Z,100795.53
2023-01-10T20:43:43.679Z,100792.00
2023-01-10T20:46:13.062Z,100787.63
2023-01-10T20:48:40.674Z,100782.16
2023-01-10T20:51:08.569Z,100787.50
2023-01-10T20:53:35.273Z,100772.31
2023-01-10T20:56:07.189Z,100774.16
2023-01-10T20:58:37.055Z,100768.81
2023-01-10T21:01:04.086Z,100756.31
2023-01-10T21:03:30.600Z,100770.50
2023-01-10T21:05:59.322Z,100766.16
2023-01-10T21:08:26.407Z,100758.97
2023-01-10T21:10:53.125Z,100760.66
2023-01-10T21:13:19.699Z,100746.47
2023-01-10T21:15:47.316Z,100746.47
2023-01-10T21:18:16.066Z,100740.97
2023-01-10T21:20:43.820Z,100727.63
2023-01-10T21:23:10.655Z,100730.28
2023-01-10T21:25:37.409Z,100737.34
2023-01-10T21:28:09.286Z,100724.00
2023-01-10T21:30:36.721Z,100742.69
2023-01-10T21:33:04.306Z,100724.81
2023-01-10T21:35:31.538Z,100723.13
2023-01-10T21:37:58.204Z,100731.13
2023-01-10T21:40:25.733Z,100732.13
2023-01-10T21:42:52.978Z,100714.16
2023-01-10T21:45:21.109Z,100695.56
2023-01-10T21:47:49.276Z,100706.97
2023-01-10T21:50:16.553Z,100699.94
2023-01-10T21:52:43.474Z,100695.56
2023-01-10T21:55:13.407Z,100692.91
2023-01-10T21:57:40.021Z,100684.88
2023-01-10T22:00:07.663Z,100684.88
2023-01-10T22:02:35.117Z,100672.38
2023-01-10T22:05:02.737Z,100682.94
2023-01-10T22:07:29.457Z,100677.59
2023-01-10T22:09:56.011Z,100684.63
2023-01-10T22:12:24.342Z,100669.44
2023-01-10T22:14:50.923Z,100667.59
2023-01-10T22:17:17.519Z,100667.47
2023-01-10T22:19:44.143Z,100656.78
2023-01-10T22:22:11.439Z,100660.31
2023-01-10T22:24:38.084Z,100657.63
2023-01-10T22:27:05.061Z,100656.63
2023-01-10T22:29:31.603Z,100653.97
2023-01-10T22:31:58.188Z,100654.81
2023-01-10T22:34:25.008Z,100654.81
2023-01-10T22:36:51.545Z,100657.34
2023-01-10T22:39:18.109Z,100650.31
2023-01-10T22:41:44.690Z,100650.31
2023-01-10T22:44:18.948Z,100644.97
2023-01-10T22:46:46.454Z,100640.47
2023-01-10T22:49:13.337Z,100638.50
2023-01-10T22:51:39.865Z,100643.84
2023-01-10T22:54:06.630Z,100635.84
2023-01-10T22:56:33.376Z,100621.66
2023-01-10T22:58:59.906Z,100621.66
2023-01-10T23:01:26.508Z,100634.16
2023-01-10T23:03:53.058Z,100625.16
2023-01-10T23:06:19.957Z,100623.31
2023-01-10T23:08:46.500Z,100617.97
2023-01-10T23:11:16.322Z,100606.31
2023-01-10T23:13:44.083Z,100615.16
2023-01-10T23:16:15.058Z,100614.31
2023-01-10T23:18:41.716Z,100609.81
2023-01-10T23:21:09.020Z,100616.03
2023-01-10T23:23:36.255Z,100615.03
2023-01-10T23:26:07.438Z,100612.34
2023-01-10T23:28:46.922Z,100608.84
2023-01-10T23:31:15.829Z,100621.91
2023-01-10T23:33:42.372Z,100601.41
2023-01-10T23:36:09.823Z,100597.72
2023-01-10T23:38:37.053Z,100606.44
2023-01-10T23:41:03.582Z,100597.44
2023-01-10T23:43:30.683Z,100594.78
2023-01-10T23:45:57.623Z,100598.13
2023-01-10T23:48:24.206Z,100596.28
2023-01-10T23:50:51.003Z,100587.28
2023-01-10T23:53:18.459Z,100585.38
2023-01-10T23:55:45.015Z,100590.56
2023-01-10T23:58:11.802Z,100578.06
